createdAt,value
2019-02-17T14:43:22.453Z,16.40
2019-02-17T14:46:12.796Z,16.00
2019-02-17T14:48:41.877Z,15.70
2019-02-17T14:51:19.352Z,15.40
2019-02-17T14:54:13.553Z,15.40
2019-02-17T14:56:56.217Z,15.30
2019-02-17T14:59:27.817Z,15.30
2019-02-17T15:02:49.332Z,15.30
2019-02-17T15:04:56.782Z,15.10
2019-02-17T15:07:30.664Z,15.00
2019-02-17T15:10:04.440Z,15.00
2019-02-17T15:12:37.817Z,14.80
2019-02-17T15:15:08.173Z,14.80
2019-02-17T15:17:59.887Z,14.80
2019-02-17T15:20:29.821Z,14.80
2019-02-17T15:22:59.467Z,14.70
2019-02-17T15:25:29.385Z,14.70
2019-02-17T15:27:58.608Z,14.50
2019-02-17T15:30:36.097Z,14.60
2019-02-17T15:33:04.911Z,14.30
2019-02-17T15:35:34.950Z,14.60
2019-02-17T15:38:05.162Z,14.50
2019-02-17T15:40:47.360Z,14.50
2019-02-17T15:43:17.082Z,14.50
2019-02-17T15:45:46.300Z,14.30
2019-02-17T15:48:16.261Z,14.30
2019-02-17T15:50:47.018Z,14.10
2019-02-17T15:53:31.691Z,14.10
2019-02-17T15:56:04.780Z,14.10
2019-02-17T15:58:34.608Z,14.20
2019-02-17T16:01:13.317Z,14.10
2019-02-17T16:03:46.616Z,14.10
2019-02-17T16:06:27.398Z,13.90
2019-02-17T16:08:57.389Z,13.90
2019-02-17T16:11:41.825Z,14.00
2019-02-17T16:14:13.404Z,13.90
2019-02-17T16:17:01.665Z,14.00
2019-02-17T16:19:32.293Z,13.90
2019-02-17T16:22:05.822Z,13.80
2019-02-17T16:24:36.257Z,13.90
2019-02-17T16:27:06.069Z,13.80
2019-02-17T16:29:36.837Z,13.70
2019-02-17T16:32:11.069Z,13.70
2019-02-17T16:34:41.243Z,13.70
2019-02-17T16:37:12.701Z,13.70
2019-02-17T16:39:42.969Z,13.70
2019-02-17T16:42:13.274Z,13.60
2019-02-17T16:44:43.074Z,13.70
2019-02-17T16:47:15.855Z,13.60
2019-02-17T16:49:48.965Z,13.50
2019-02-17T16:52:20.298Z,13.50
2019-02-17T16:54:50.274Z,13.50
2019-02-17T16:57:27.815Z,13.30
2019-02-17T16:59:59.738Z,13.20
2019-02-17T17:02:32.844Z,13.10
2019-02-17T17:05:47.250Z,13.00
2019-02-17T17:08:49.861Z,12.90
2019-02-17T17:11:19.510Z,12.80
2019-02-17T17:13:53.333Z,12.80
2019-02-17T17:16:23.120Z,12.90
2019-02-17T17:18:52.607Z,12.80
2019-02-17T17:21:22.591Z,12.80
2019-02-17T17:23:58.249Z,12.80
2019-02-17T17:26:36.294Z,12.70
2019-02-17T17:29:06.589Z,12.80
2019-02-17T17:31:37.051Z,12.80
2019-02-17T17:34:07.749Z,12.70
2019-02-17T17:36:40.117Z,12.60
2019-02-17T17:39:10.193Z,12.50
2019-02-17T17:41:46.284Z,12.50
2019-02-17T17:44:20.505Z,12.40
2019-02-17T17:46:54.511Z,12.20
2019-02-17T17:49:31.729Z,12.20
2019-02-17T17:52:12.995Z,12.20
2019-02-17T17:55:06.877Z,12.20
2019-02-17T17:58:11.341Z,12.00
2019-02-17T18:05:27.411Z,12.10
2019-02-17T18:09:36.475Z,12.10
2019-02-17T18:12:20.473Z,11.80
2019-02-17T18:17:55.059Z,11.70
2019-02-17T18:20:46.527Z,11.60
2019-02-17T18:23:21.507Z,11.60
2019-02-17T18:25:51.438Z,11.70
2019-02-17T18:28:47.540Z,11.60
2019-02-17T18:31:21.759Z,11.60
2019-02-17T18:33:55.691Z,11.50
2019-02-17T18:37:13.113Z,11.50
2019-02-17T18:39:48.393Z,11.50
2019-02-17T18:42:18.967Z,11.50
2019-02-17T18:44:51.294Z,11.30
2019-02-17T18:47:20.324Z,11.40
2019-02-17T18:49:49.663Z,11.90
2019-02-17T18:52:19.240Z,11.40
2019-02-17T18:54:53.475Z,11.40
2019-02-17T18:57:49.955Z,11.30
2019-02-17T19:00:16.290Z,11.30
2019-02-17T19:02:50.427Z,11.30
2019-02-17T19:05:24.606Z,11.30
2019-02-17T19:07:56.711Z,11.30
2019-02-17T19:10:25.735Z,11.30
2019-02-17T19:12:58.893Z,11.30
2019-02-17T19:15:46.908Z,11.20
2019-02-17T19:18:16.432Z,11.10
2019-02-17T19:21:29.736Z,11.00
2019-02-17T19:23:47.994Z,11.00
2019-02-17T19:26:19.299Z,11.10
2019-02-17T19:28:50.403Z,11.10
2019-02-17T19:31:19.720Z,11.20
2019-02-17T19:33:50.954Z,11.60
2019-02-17T19:36:20.151Z,11.20
2019-02-17T19:38:49.180Z,11.10
2019-02-17T19:41:23.902Z,11.20
2019-02-17T19:43:53.881Z,11.00
2019-02-17T19:46:23.153Z,11.10
2019-02-17T19:49:05.901Z,11.00
2019-02-17T19:51:35.316Z,10.90
2019-02-17T19:54:05.059Z,10.80
2019-02-17T19:56:34.310Z,10.80
2019-02-17T19:59:10.984Z,10.70
2019-02-17T20:01:44.370Z,10.70
2019-02-17T20:04:35.187Z,10.70
2019-02-17T20:07:07.667Z,10.80
2019-02-17T20:09:36.798Z,10.80
2019-02-17T20:12:09.033Z,10.70
2019-02-17T20:14:55.298Z,10.60
2019-02-17T20:17:25.337Z,10.80
2019-02-17T20:19:55.107Z,10.60
2019-02-17T20:22:24.370Z,10.60
2019-02-17T20:25:21.886Z,10.60
2019-02-17T20:28:01.058Z,10.60
2019-02-17T20:30:49.913Z,10.60
2019-02-17T20:33:28.819Z,10.60
2019-02-17T20:36:02.644Z,10.50
2019-02-17T20:38:33.167Z,10.40
2019-02-17T20:41:08.995Z,10.30
2019-02-17T20:43:48.062Z,10.30
2019-02-17T20:46:23.844Z,10.20
2019-02-17T20:49:34.879Z,10.20
2019-02-17T20:52:04.238Z,10.30
2019-02-17T20:54:36.712Z,10.20
2019-02-17T20:57:09.231Z,10.20
2019-02-17T20:59:41.464Z,10.20
2019-02-17T21:02:14.427Z,10.20
2019-02-17T21:04:43.921Z,10.10
2019-02-17T21:07:17.404Z,10.20
2019-02-17T21:09:47.863Z,10.10
2019-02-17T21:12:18.632Z,10.10
2019-02-17T21:14:51.029Z,10.00
2019-02-17T21:20:56.130Z,10.00
2019-02-17T21:27:06.518Z,10.40
2019-02-17T21:29:35.654Z,10.50
2019-02-17T21:32:14.636Z,10.40
2019-02-17T21:34:44.613Z,10.40
2019-02-17T21:37:15.735Z,10.30
2019-02-17T21:39:48.187Z,10.30
2019-02-17T22:14:01.833Z,9.80
2019-02-17T22:16:56.341Z,9.80
2019-02-17T22:19:33.715Z,9.70
2019-02-17T22:22:20.631Z,9.60
2019-02-17T22:25:11.886Z,9.40
2019-02-17T22:28:04.742Z,9.40
2019-02-17T22:31:50.336Z,9.40
2019-02-17T22:34:28.302Z,9.30
2019-02-17T22:37:05.309Z,9.30
2019-02-17T22:39:40.041Z,9.20
2019-02-17T22:42:58.064Z,9.10
2019-02-17T22:45:55.755Z,9.10
2019-02-17T22:49:06.125Z,9.00
2019-02-17T22:51:56.977Z,8.90
2019-02-17T23:03:50.387Z,8.50
2019-02-17T23:06:53.862Z,8.50
2019-02-17T23:24:25.320Z,8.50
2019-02-17T23:35:38.217Z,8.20
2019-02-17T23:38:44.235Z,8.10
2019-02-17T23:42:35.629Z,8.10
2019-02-17T23:48:14.302Z,8.10
2019-02-17T23:51:30.614Z,8.00
2019-02-17T23:54:55.232Z,8.00
